createdAt,value
2023-04-20T00:00:00.860Z,1.04
2023-04-20T00:01:01.002Z,1.04
2023-04-20T00:02:01.198Z,1.04
2023-04-20T00:03:01.395Z,1.04
2023-04-20T00:04:01.617Z,1.04
2023-04-20T00:05:01.646Z,1.04
2023-04-20T00:06:01.758Z,1.04
2023-04-20T00:07:01.902Z,1.04
2023-04-20T00:08:02.014Z,1.04
2023-04-20T00:09:02.157Z,1.04
2023-04-20T00:10:02.271Z,1.04
2023-04-20T00:11:02.410Z,1.04
2023-04-20T00:12:02.527Z,1.04
2023-04-20T00:13:02.672Z,1.04
2023-04-20T00:14:02.821Z,1.04
2023-04-20T00:15:02.968Z,1.04
2023-04-20T00:16:03.136Z,1.04
2023-04-20T00:17:03.300Z,1.04
2023-04-20T00:18:03.441Z,1.04
2023-04-20T00:19:03.590Z,1.04
2023-04-20T00:20:03.733Z,1.04
2023-04-20T00:21:03.866Z,1.04
2023-04-20T00:22:03.985Z,1.04
2023-04-20T00:23:04.147Z,1.04
2023-04-20T00:24:04.283Z,1.04
2023-04-20T00:25:04.434Z,1.04
2023-04-20T00:26:04.544Z,1.04
2023-04-20T00:27:04.677Z,1.04
2023-04-20T00:28:04.782Z,1.04
2023-04-20T00:29:04.938Z,1.04
2023-04-20T00:30:05.083Z,1.04
2023-04-20T00:31:05.259Z,1.04
2023-04-20T00:32:05.381Z,1.04
2023-04-20T00:33:05.560Z,1.04
2023-04-20T00:34:05.701Z,1.04
2023-04-20T00:35:05.840Z,1.04
2023-04-20T00:36:05.992Z,1.04
2023-04-20T00:37:06.138Z,1.04
2023-04-20T00:38:06.248Z,1.04
2023-04-20T00:39:06.414Z,1.04
2023-04-20T00:40:06.493Z,1.04
2023-04-20T00:41:06.653Z,1.04
2023-04-20T00:42:06.821Z,1.04
2023-04-20T00:43:06.971Z,1.04
2023-04-20T00:44:07.124Z,1.04
2023-04-20T00:45:07.262Z,1.04
2023-04-20T00:46:07.434Z,1.04
2023-04-20T00:47:07.569Z,1.04
2023-04-20T00:48:07.684Z,1.04
2023-04-20T00:49:07.819Z,1.04
2023-04-20T00:50:07.970Z,1.04
2023-04-20T00:51:08.676Z,1.04
2023-04-20T00:52:08.274Z,1.04
2023-04-20T00:53:08.421Z,1.04
2023-04-20T00:54:08.524Z,1.04
2023-04-20T00:55:08.676Z,1.04
2023-04-20T00:56:09.409Z,1.04
2023-04-20T00:57:08.981Z,1.04
2023-04-20T00:58:09.644Z,1.04
2023-04-20T01:00:09.396Z,1.04
2023-04-20T01:01:09.999Z,1.04
2023-04-20T01:02:09.984Z,1.04
2023-04-20T01:03:09.921Z,1.04
2023-04-20T01:04:10.030Z,1.04
2023-04-20T01:05:10.043Z,1.04
2023-04-20T01:06:10.615Z,1.04
2023-04-20T01:08:10.440Z,1.04
2023-04-20T01:09:10.596Z,1.04
2023-04-20T01:10:10.702Z,1.04
2023-04-20T01:11:10.793Z,1.04
2023-04-20T01:12:10.950Z,1.04
2023-04-20T01:13:11.061Z,1.04
2023-04-20T01:14:11.214Z,1.04
2023-04-20T01:15:11.363Z,1.04
2023-04-20T01:16:11.535Z,1.04
2023-04-20T01:17:11.688Z,1.04
2023-04-20T01:18:11.833Z,1.04
2023-04-20T01:19:11.983Z,1.04
2023-04-20T01:20:12.113Z,1.04
2023-04-20T01:21:12.269Z,1.04
2023-04-20T01:22:12.438Z,1.04
2023-04-20T01:23:12.571Z,1.04
2023-04-20T01:24:12.664Z,1.04
2023-04-20T01:25:12.813Z,1.04
2023-04-20T01:26:12.922Z,1.04
2023-04-20T01:27:13.062Z,1.04
2023-04-20T01:28:13.169Z,1.04
2023-04-20T01:29:13.329Z,1.04
2023-04-20T01:30:13.497Z,1.04
2023-04-20T01:31:13.722Z,1.04
2023-04-20T01:32:13.748Z,1.04
2023-04-20T01:33:13.894Z,1.04
2023-04-20T01:34:14.044Z,1.04
2023-04-20T01:35:14.192Z,1.04
2023-04-20T01:36:14.335Z,1.04
2023-04-20T01:37:14.493Z,1.04
2023-04-20T01:38:14.648Z,1.04
2023-04-20T01:39:14.839Z,1.04
2023-04-20T01:40:14.960Z,1.04
2023-04-20T01:41:15.097Z,1.04
2023-04-20T01:42:15.212Z,1.04
2023-04-20T01:43:15.358Z,1.04
2023-04-20T01:44:15.507Z,1.04
2023-04-20T01:45:15.654Z,1.04
2023-04-20T01:46:15.809Z,1.04
2023-04-20T01:47:15.956Z,1.04
2023-04-20T01:48:16.122Z,1.04
2023-04-20T01:49:16.427Z,1.04
2023-04-20T01:50:16.417Z,1.04
2023-04-20T01:51:16.571Z,1.04
2023-04-20T01:52:16.713Z,1.04
2023-04-20T01:53:16.873Z,1.04
2023-04-20T01:54:17.030Z,1.04
2023-04-20T01:55:18.883Z,1.04
2023-04-20T01:56:17.337Z,1.04
2023-04-20T01:57:17.479Z,1.04
2023-04-20T01:58:17.585Z,1.04
2023-04-20T01:59:17.874Z,1.04
2023-04-20T02:00:17.834Z,1.04
2023-04-20T02:01:18.005Z,1.04
2023-04-20T02:02:18.193Z,1.04
2023-04-20T02:03:18.343Z,1.04
2023-04-20T02:04:18.430Z,1.04
2023-04-20T02:05:18.535Z,1.04
2023-04-20T02:06:18.683Z,1.04
2023-04-20T02:07:18.849Z,1.04
2023-04-20T02:08:18.996Z,1.04
2023-04-20T02:09:19.320Z,1.04
2023-04-20T02:10:19.305Z,1.04
2023-04-20T02:11:19.447Z,1.04
2023-04-20T02:12:19.598Z,1.04
2023-04-20T02:13:19.747Z,1.04
2023-04-20T02:14:19.917Z,1.04
2023-04-20T02:15:20.060Z,1.04
2023-04-20T02:16:20.225Z,1.04
2023-04-20T02:17:20.436Z,1.04
2023-04-20T02:18:20.507Z,1.04
2023-04-20T02:19:20.659Z,1.04
2023-04-20T02:20:20.767Z,1.04
2023-04-20T02:21:20.908Z,1.04
2023-04-20T02:22:21.070Z,1.04
2023-04-20T02:23:21.219Z,1.04
2023-04-20T02:24:21.367Z,1.04
2023-04-20T02:25:21.513Z,1.04
2023-04-20T02:26:21.678Z,1.04
2023-04-20T02:27:21.817Z,1.04
2023-04-20T02:28:21.973Z,1.04
2023-04-20T02:29:22.132Z,1.04
2023-04-20T02:30:22.268Z,1.04
2023-04-20T02:31:22.497Z,1.04
2023-04-20T02:32:22.528Z,1.04
2023-04-20T02:33:22.675Z,1.04
2023-04-20T02:34:22.824Z,1.04
2023-04-20T02:35:23.001Z,1.04
2023-04-20T02:36:23.076Z,1.04
2023-04-20T02:37:23.246Z,1.04
2023-04-20T02:38:23.409Z,1.04
2023-04-20T02:39:23.541Z,1.04
2023-04-20T02:40:23.692Z,1.04
2023-04-20T02:41:23.838Z,1.04
2023-04-20T02:42:24.010Z,1.04
2023-04-20T02:43:24.139Z,1.04
2023-04-20T02:44:24.250Z,1.04
2023-04-20T02:46:24.522Z,1.04
2023-04-20T02:47:24.689Z,1.04
2023-04-20T02:48:24.804Z,1.04
2023-04-20T02:49:24.954Z,1.04
2023-04-20T02:50:25.099Z,1.04
2023-04-20T02:51:25.252Z,1.04
2023-04-20T02:52:25.414Z,1.04
2023-04-20T02:53:25.515Z,1.04
2023-04-20T02:54:25.608Z,1.04
2023-04-20T02:55:25.763Z,1.04
2023-04-20T02:56:25.878Z,1.04
2023-04-20T02:57:26.048Z,1.04
2023-04-20T02:58:26.183Z,1.04
2023-04-20T02:59:26.336Z,1.04
2023-04-20T03:00:26.425Z,1.04
2023-04-20T03:01:26.586Z,1.04
2023-04-20T03:02:26.872Z,1.04
2023-04-20T03:03:26.982Z,1.04
2023-04-20T03:04:27.123Z,1.04
2023-04-20T03:05:27.128Z,1.04
2023-04-20T03:06:27.268Z,1.04
2023-04-20T03:07:27.424Z,1.04
2023-04-20T03:08:27.571Z,1.04
2023-04-20T03:09:27.730Z,1.04
2023-04-20T03:10:27.876Z,1.04
2023-04-20T03:11:27.979Z,1.04
2023-04-20T03:12:28.086Z,1.04
2023-04-20T03:13:28.233Z,1.04
2023-04-20T03:14:28.387Z,1.04
2023-04-20T03:15:28.538Z,1.04
2023-04-20T03:16:28.677Z,1.04
2023-04-20T03:17:28.816Z,1.04
2023-04-20T03:18:28.934Z,1.04
2023-04-20T03:19:29.096Z,1.04
2023-04-20T03:20:29.244Z,1.04
2023-04-20T03:21:29.392Z,1.04
2023-04-20T03:22:29.513Z,1.04
2023-04-20T03:23:29.646Z,1.04
2023-04-20T03:24:29.812Z,1.04
2023-04-20T03:25:29.964Z,2
2023-04-20T03:26:30.118Z,2
2023-04-20T03:27:30.259Z,2
2023-04-20T03:28:30.359Z,2
2023-04-20T03:29:30.481Z,3.04
2023-04-20T03:30:30.633Z,3.04
2023-04-20T03:31:30.802Z,3.04
2023-04-20T03:32:32.709Z,4
2023-04-20T03:33:31.016Z,4
2023-04-20T03:34:31.168Z,5.04
2023-04-20T03:35:31.315Z,6
2023-04-20T03:36:31.455Z,7.04
2023-04-20T03:37:31.567Z,8
2023-04-20T03:38:31.676Z,9.04
2023-04-20T03:39:31.787Z,10
2023-04-20T03:40:31.877Z,12
2023-04-20T03:41:32.035Z,14
2023-04-20T03:42:32.183Z,16
2023-04-20T03:43:32.303Z,19.04
2023-04-20T03:44:32.432Z,22
2023-04-20T03:45:32.613Z,26
2023-04-20T03:46:32.710Z,30
2023-04-20T03:47:32.883Z,35.04
2023-04-20T03:48:32.990Z,42
2023-04-20T03:49:33.150Z,48
2023-04-20T03:50:33.297Z,55.04
2023-04-20T03:51:33.449Z,65.04
2023-04-20T03:52:33.597Z,74
2023-04-20T03:53:33.756Z,86
2023-04-20T03:54:33.896Z,87.04
2023-04-20T03:55:34.058Z,98
2023-04-20T03:56:34.226Z,114
2023-04-20T03:57:34.361Z,127.04
2023-04-20T03:58:34.507Z,146
2023-04-20T03:59:34.663Z,161.04
2023-04-20T04:00:34.805Z,179.04
2023-04-20T04:01:34.980Z,204
2023-04-20T04:02:37.603Z,227.04
2023-04-20T04:03:35.324Z,254.08
2023-04-20T04:04:35.517Z,278.08
2023-04-20T04:05:35.575Z,302.08
2023-04-20T04:06:35.679Z,335.04
2023-04-20T04:07:35.821Z,364.16
2023-04-20T04:08:35.934Z,395.2
2023-04-20T04:09:36.073Z,433.28
2023-04-20T04:10:36.234Z,464
2023-04-20T04:11:36.382Z,497.28
2023-04-20T04:12:36.536Z,532.16
2023-04-20T04:13:36.688Z,576
2023-04-20T04:14:36.846Z,614.08
2023-04-20T04:15:36.997Z,652.16
2023-04-20T04:16:37.141Z,702.08
2023-04-20T04:17:37.254Z,745.6
2023-04-20T04:18:37.392Z,788.48
2023-04-20T04:19:37.544Z,833.28
2023-04-20T04:20:37.654Z,874.24
2023-04-20T04:21:37.808Z,932.48
2023-04-20T04:22:37.947Z,981.12
2023-04-20T04:23:38.055Z,1047.04
2023-04-20T04:24:38.213Z,1103.36
2023-04-20T04:25:38.350Z,1165.44
2023-04-20T04:26:38.533Z,1213.44
2023-04-20T04:27:38.646Z,1267.2
2023-04-20T04:28:38.754Z,1320.96
2023-04-20T04:29:38.930Z,1396.48
2023-04-20T04:30:39.030Z,1436.16
2023-04-20T04:31:39.190Z,1472
2023-04-20T04:32:39.349Z,1516.8
2023-04-20T04:33:39.418Z,1559.04
2023-04-20T04:34:39.561Z,1617.92
2023-04-20T04:35:39.749Z,1698.56
2023-04-20T04:36:39.875Z,1783.04
2023-04-20T04:37:40.028Z,1886.72
2023-04-20T04:38:40.169Z,2007.04
2023-04-20T04:39:40.290Z,2096.64
2023-04-20T04:40:40.427Z,2208
2023-04-20T04:41:40.609Z,2295.04
2023-04-20T04:42:40.735Z,2384.64
2023-04-20T04:43:40.891Z,2492.16
2023-04-20T04:44:41.043Z,2583.04
2023-04-20T04:45:41.203Z,2664.96
2023-04-20T04:46:41.394Z,2736.64
2023-04-20T04:47:41.490Z,2823.68
2023-04-20T04:48:41.645Z,2877.44
2023-04-20T04:49:41.799Z,2949.12
2023-04-20T04:50:41.942Z,3069.44
2023-04-20T04:51:42.109Z,3153.92
2023-04-20T04:52:42.217Z,3287.04
2023-04-20T04:53:42.296Z,3427.84
2023-04-20T04:54:42.411Z,3535.36
2023-04-20T04:55:42.554Z,3622.4
2023-04-20T04:56:42.717Z,3732.48
2023-04-20T04:57:42.868Z,3829.76
2023-04-20T04:58:43.002Z,3934.72
2023-04-20T04:59:43.159Z,4047.36
2023-04-20T05:00:43.302Z,4147.2
2023-04-20T05:01:43.456Z,4231.68
2023-04-20T05:02:43.645Z,4339.2
2023-04-20T05:03:43.748Z,4392.96
2023-04-20T05:04:43.956Z,4487.68
2023-04-20T05:05:44.015Z,4584.96
2023-04-20T05:06:44.164Z,4715.52
2023-04-20T05:07:44.309Z,4825.6
2023-04-20T05:08:44.481Z,4925.44
2023-04-20T05:09:44.618Z,5009.92
2023-04-20T05:10:44.774Z,5096.96
2023-04-20T05:11:44.912Z,5184
2023-04-20T05:12:45.031Z,5288.96
2023-04-20T05:13:45.122Z,5401.6
2023-04-20T05:14:45.238Z,5442.56
2023-04-20T05:15:45.376Z,5555.2
2023-04-20T05:16:45.553Z,5678.08
2023-04-20T05:17:45.685Z,5867.52
2023-04-20T05:18:45.832Z,5949.44
2023-04-20T05:19:46.000Z,5975.04
2023-04-20T05:20:46.088Z,6133.76
2023-04-20T05:21:46.247Z,6307.84
2023-04-20T05:22:46.390Z,6389.76
2023-04-20T05:23:46.517Z,6512.64
2023-04-20T05:24:46.634Z,6650.88
2023-04-20T05:25:46.775Z,6737.92
2023-04-20T05:26:46.880Z,6804.48
2023-04-20T05:27:47.060Z,6845.44
2023-04-20T05:28:47.129Z,7050.24
2023-04-20T05:29:47.234Z,7106.56
2023-04-20T05:30:47.382Z,7306.24
2023-04-20T05:31:47.504Z,7434.24
2023-04-20T05:32:50.117Z,7536.64
2023-04-20T05:33:47.792Z,7603.2
2023-04-20T05:34:47.891Z,7680
2023-04-20T05:35:48.042Z,7685.12
2023-04-20T05:36:48.147Z,7797.76
2023-04-20T05:37:48.244Z,7905.28
2023-04-20T05:38:48.392Z,7992.32
2023-04-20T05:39:48.504Z,8017.92
2023-04-20T05:40:49.814Z,8002.56
2023-04-20T05:41:48.709Z,7971.84
2023-04-20T05:42:48.797Z,7976.96
2023-04-20T05:43:48.903Z,7936
2023-04-20T05:44:49.107Z,7895.04
2023-04-20T05:45:49.252Z,7900.16
2023-04-20T05:46:49.340Z,7838.72
2023-04-20T05:47:49.456Z,7767.04
2023-04-20T05:48:49.584Z,7715.84
2023-04-20T05:49:49.674Z,7080.96
2023-04-20T05:50:49.834Z,5749.76
2023-04-20T05:51:49.973Z,7557.12
2023-04-20T05:52:50.134Z,7511.04
2023-04-20T05:53:50.258Z,7608.32
2023-04-20T05:54:50.387Z,7639.04
2023-04-20T05:55:50.480Z,7418.88
2023-04-20T05:56:50.582Z,7608.32
2023-04-20T05:57:50.733Z,7608.32
2023-04-20T05:58:50.881Z,7639.04
2023-04-20T05:59:51.028Z,7639.04
2023-04-20T06:00:51.182Z,7603.2
2023-04-20T06:01:51.345Z,7659.52
2023-04-20T06:02:51.558Z,7654.4
2023-04-20T06:03:51.719Z,7628.8
2023-04-20T06:04:51.855Z,7628.8
2023-04-20T06:05:51.911Z,7526.4
2023-04-20T06:06:52.069Z,7065.6
2023-04-20T06:07:52.163Z,7121.92
2023-04-20T06:08:52.280Z,7413.76
2023-04-20T06:09:52.402Z,6942.72
2023-04-20T06:10:52.555Z,7142.4
2023-04-20T06:11:52.670Z,7326.72
2023-04-20T06:12:52.831Z,6471.68
2023-04-20T06:13:52.982Z,6440.96
2023-04-20T06:14:53.114Z,5283.84
2023-04-20T06:15:53.276Z,7388.16
2023-04-20T06:16:53.426Z,5841.92
2023-04-20T06:17:53.653Z,6292.48
2023-04-20T06:18:53.670Z,5004.8
2023-04-20T06:19:53.770Z,6609.92
2023-04-20T06:20:53.924Z,7557.12
2023-04-20T06:21:54.117Z,7311.36
2023-04-20T06:22:54.247Z,7280.64
2023-04-20T06:23:54.390Z,7598.08
2023-04-20T06:24:54.528Z,7398.4
2023-04-20T06:25:54.709Z,7720.96
2023-04-20T06:26:54.898Z,7710.72
2023-04-20T06:27:54.998Z,7756.8
2023-04-20T06:28:55.150Z,7756.8
2023-04-20T06:29:55.302Z,7761.92
2023-04-20T06:30:55.464Z,7787.52
2023-04-20T06:31:55.593Z,7838.72
2023-04-20T06:32:55.761Z,7874.56
2023-04-20T06:33:55.902Z,7900.16
2023-04-20T06:34:56.060Z,7864.32
2023-04-20T06:35:56.202Z,7746.56
2023-04-20T06:36:56.362Z,7546.88
2023-04-20T06:37:56.505Z,7628.8
2023-04-20T06:38:56.604Z,7511.04
2023-04-20T06:39:56.760Z,6164.48
2023-04-20T06:40:56.907Z,5411.84
2023-04-20T06:41:57.055Z,5969.92
2023-04-20T06:42:57.174Z,5724.16
2023-04-20T06:43:57.317Z,6072.32
2023-04-20T06:44:57.461Z,5739.52
2023-04-20T06:45:57.564Z,4590.08
2023-04-20T06:46:57.694Z,4715.52
2023-04-20T06:47:57.852Z,4899.84
2023-04-20T06:48:57.937Z,5066.24
2023-04-20T06:49:58.093Z,6149.12
2023-04-20T06:50:58.229Z,6062.08
2023-04-20T06:51:58.324Z,6287.36
2023-04-20T06:52:58.468Z,6292.48
2023-04-20T06:53:58.565Z,6492.16
2023-04-20T06:54:58.744Z,5888
2023-04-20T06:55:58.893Z,6364.16
2023-04-20T06:56:58.983Z,6548.48
2023-04-20T06:57:59.139Z,6615.04
2023-04-20T06:58:59.492Z,6446.08
2023-04-20T06:59:59.427Z,6389.76
2023-04-20T07:00:59.574Z,6164.48
2023-04-20T07:01:59.878Z,6021.12
2023-04-20T07:02:59.960Z,6154.24
2023-04-20T07:04:00.266Z,6184.96
2023-04-20T07:05:00.467Z,6220.8
2023-04-20T07:06:00.339Z,6323.2
2023-04-20T07:07:00.513Z,6261.76
2023-04-20T07:08:00.616Z,6440.96
2023-04-20T07:09:00.752Z,7004.16
2023-04-20T07:10:00.941Z,7362.56
2023-04-20T07:11:01.050Z,7736.32
2023-04-20T07:12:01.200Z,7859.2
2023-04-20T07:13:01.350Z,8320
2023-04-20T07:14:01.456Z,8171.52
2023-04-20T07:15:01.611Z,7889.92
2023-04-20T07:16:01.808Z,7848.96
2023-04-20T07:17:01.869Z,8867.84
2023-04-20T07:18:02.025Z,8739.84
2023-04-20T07:19:02.105Z,8494.08
2023-04-20T07:20:02.219Z,8494.08
2023-04-20T07:21:02.324Z,7930.88
2023-04-20T07:22:02.468Z,7040
2023-04-20T07:23:02.629Z,7024.64
2023-04-20T07:24:02.791Z,9512.96
2023-04-20T07:25:02.920Z,9441.28
2023-04-20T07:26:03.072Z,7142.4
2023-04-20T07:27:03.223Z,7736.32
2023-04-20T07:28:03.386Z,7562.24
2023-04-20T07:29:03.536Z,7920.64
2023-04-20T07:30:03.622Z,9697.279
2023-04-20T07:31:03.779Z,9436.16
2023-04-20T07:32:03.990Z,9866.24
2023-04-20T07:33:04.092Z,10071.04
2023-04-20T07:34:04.229Z,10183.68
2023-04-20T07:35:04.329Z,10864.64
2023-04-20T07:36:04.497Z,12544
2023-04-20T07:37:04.644Z,13199.359
2023-04-20T07:38:04.791Z,14919.68
2023-04-20T07:39:04.938Z,15370.239
2023-04-20T07:40:05.105Z,17080.32
2023-04-20T07:41:05.261Z,16660.48
2023-04-20T07:42:05.372Z,16814.08
2023-04-20T07:43:05.498Z,17131.52
2023-04-20T07:44:05.662Z,16824.32
2023-04-20T07:45:05.813Z,16947.2
2023-04-20T07:46:06.020Z,17080.32
2023-04-20T07:47:06.130Z,17561.6
2023-04-20T07:48:06.321Z,18841.6
2023-04-20T07:49:06.360Z,19322.88
2023-04-20T07:50:06.478Z,19097.6
2023-04-20T07:51:06.601Z,18565.12
2023-04-20T07:52:16.201Z,18841.6
2023-04-20T07:53:06.858Z,19097.6
2023-04-20T07:54:07.007Z,19968
2023-04-20T07:55:07.161Z,20367.36
2023-04-20T07:56:07.312Z,20992
2023-04-20T07:57:07.494Z,21975.04
2023-04-20T07:58:07.645Z,22794.24
2023-04-20T07:59:07.774Z,22835.2
2023-04-20T08:00:07.933Z,23674.88
2023-04-20T08:01:08.067Z,23490.56
2023-04-20T08:02:08.291Z,22528
2023-04-20T08:03:08.813Z,22016
2023-04-20T08:04:08.723Z,21565.44
2023-04-20T08:05:08.864Z,20510.72
2023-04-20T08:06:08.850Z,20121.6
2023-04-20T08:07:09.452Z,19097.6
2023-04-20T08:08:09.100Z,17336.32
2023-04-20T08:09:10.383Z,16230.399
2023-04-20T08:10:09.427Z,14827.52
2023-04-20T08:11:09.541Z,14796.8
2023-04-20T08:12:09.717Z,13035.52
2023-04-20T08:13:10.263Z,14090.239
2023-04-20T08:14:09.963Z,14960.64
2023-04-20T08:15:10.601Z,15564.8
2023-04-20T08:17:10.374Z,16384
2023-04-20T08:18:10.534Z,16404.48
2023-04-20T08:19:10.638Z,16107.52
2023-04-20T08:20:10.810Z,17643.52
2023-04-20T08:21:10.814Z,23019.52
2023-04-20T08:22:10.982Z,21790.72
2023-04-20T08:23:11.122Z,20869.12
2023-04-20T08:24:11.258Z,20152.32
2023-04-20T08:25:11.421Z,19742.72
2023-04-20T08:26:11.568Z,18636.8
2023-04-20T08:27:11.731Z,19179.52
2023-04-20T08:28:15.486Z,18759.68
2023-04-20T08:29:12.017Z,18739.2
2023-04-20T08:30:12.174Z,19845.12
2023-04-20T08:31:12.291Z,18350.08
2023-04-20T08:32:12.427Z,19886.08
2023-04-20T08:33:12.601Z,20439.04
2023-04-20T08:34:12.735Z,18329.6
2023-04-20T08:35:12.893Z,22159.36
2023-04-20T08:36:13.037Z,23019.52
2023-04-20T08:37:13.206Z,22507.52
2023-04-20T08:38:15.852Z,23040
2023-04-20T08:39:13.429Z,19988.48
2023-04-20T08:40:13.544Z,19998.72
2023-04-20T08:41:13.699Z,20848.64
2023-04-20T08:42:13.844Z,20152.32
2023-04-20T08:43:13.995Z,19855.36
2023-04-20T08:44:14.213Z,19097.6
2023-04-20T08:45:14.299Z,19261.44
2023-04-20T08:46:14.482Z,19927.04
2023-04-20T08:47:14.609Z,23224.32
2023-04-20T08:48:14.773Z,23592.96
2023-04-20T08:49:14.912Z,25128.96
2023-04-20T08:50:15.057Z,26275.84
2023-04-20T08:51:15.158Z,25190.4
2023-04-20T08:52:15.310Z,26009.6
2023-04-20T08:53:15.457Z,25948.16
2023-04-20T08:54:15.891Z,26091.52
2023-04-20T08:55:15.757Z,27176.96
2023-04-20T08:56:15.916Z,26439.68
2023-04-20T08:57:16.071Z,26193.92
2023-04-20T08:58:16.232Z,26583.04
2023-04-20T08:59:16.312Z,26972.16
2023-04-20T09:00:16.470Z,27648
2023-04-20T09:01:19.941Z,27586.56
2023-04-20T09:02:16.760Z,28344.32
2023-04-20T09:03:16.885Z,27525.12
2023-04-20T09:04:17.544Z,27709.44
2023-04-20T09:05:17.137Z,27422.72
2023-04-20T09:06:17.213Z,27279.36
2023-04-20T09:07:17.373Z,26767.36
2023-04-20T09:08:17.520Z,26460.16
2023-04-20T09:09:17.674Z,26296.32
2023-04-20T09:10:18.298Z,25845.76
2023-04-20T09:11:17.980Z,25559.04
2023-04-20T09:12:18.142Z,25128.96
2023-04-20T09:13:18.283Z,24432.64
2023-04-20T09:14:19.057Z,23715.84
2023-04-20T09:15:19.165Z,23326.72
2023-04-20T09:16:18.731Z,23265.28
2023-04-20T09:17:18.855Z,23080.96
2023-04-20T09:18:19.441Z,22753.28
2023-04-20T09:19:19.099Z,22077.44
2023-04-20T09:20:19.756Z,21114.88
2023-04-20T09:21:19.395Z,20234.24
2023-04-20T09:22:19.544Z,19445.76
2023-04-20T09:23:20.018Z,19322.88
2023-04-20T09:24:19.813Z,19415.04
2023-04-20T09:25:20.401Z,19578.88
2023-04-20T09:26:20.005Z,19834.88
2023-04-20T09:27:20.156Z,19824.64
2023-04-20T09:28:20.306Z,19456
2023-04-20T09:29:20.415Z,19169.28
2023-04-20T09:30:20.567Z,19179.52
2023-04-20T09:31:20.729Z,20142.08
2023-04-20T09:32:21.123Z,20817.92
2023-04-20T09:33:21.026Z,21032.96
2023-04-20T09:34:21.394Z,20275.2
2023-04-20T09:35:21.489Z,19363.84
2023-04-20T09:36:21.620Z,18995.2
2023-04-20T09:37:21.771Z,19046.4
2023-04-20T09:38:21.934Z,19578.88
2023-04-20T09:39:22.088Z,20418.56
2023-04-20T09:40:22.354Z,21217.28
2023-04-20T09:41:22.388Z,21606.4
2023-04-20T09:42:22.493Z,21319.68
2023-04-20T09:43:22.664Z,20725.76
2023-04-20T09:44:22.785Z,20264.96
2023-04-20T09:45:22.931Z,19476.48
2023-04-20T09:46:23.171Z,18472.96
2023-04-20T09:47:23.294Z,17510.4
2023-04-20T09:48:23.403Z,17274.88
2023-04-20T09:49:23.499Z,17162.24
2023-04-20T09:50:29.462Z,17541.12
2023-04-20T09:51:23.742Z,18903.04
2023-04-20T09:52:23.901Z,22118.4
2023-04-20T09:53:24.042Z,25272.32
2023-04-20T09:54:24.196Z,28610.56
2023-04-20T09:55:24.359Z,31150.08
2023-04-20T09:56:24.509Z,31641.6
2023-04-20T09:57:24.648Z,31744
2023-04-20T09:58:24.762Z,31600.64
2023-04-20T09:59:24.920Z,31232
2023-04-20T10:00:25.056Z,31416.32
2023-04-20T10:01:25.224Z,31539.2
2023-04-20T10:02:25.393Z,31662.08
2023-04-20T10:03:25.673Z,31375.36
2023-04-20T10:04:25.703Z,30883.84
2023-04-20T10:05:25.765Z,30392.32
2023-04-20T10:06:25.870Z,30535.68
2023-04-20T10:07:25.971Z,30474.24
2023-04-20T10:08:26.078Z,30515.2
2023-04-20T10:09:26.269Z,29470.72
2023-04-20T10:10:26.375Z,27381.76
2023-04-20T10:11:27.929Z,24903.68
2023-04-20T10:12:26.675Z,21524.48
2023-04-20T10:13:26.790Z,19169.28
2023-04-20T10:14:26.954Z,17049.6
2023-04-20T10:15:27.086Z,15616
2023-04-20T10:16:27.289Z,14438.399
2023-04-20T10:17:27.501Z,13977.6
2023-04-20T10:18:27.625Z,14479.359
2023-04-20T10:19:27.690Z,15360
2023-04-20T10:20:27.836Z,15104
2023-04-20T10:21:27.992Z,14233.6
2023-04-20T10:22:28.105Z,14192.64
2023-04-20T10:23:28.250Z,14592
2023-04-20T10:24:28.390Z,14970.88
2023-04-20T10:25:28.502Z,15503.359
2023-04-20T10:26:28.608Z,15933.439
2023-04-20T10:27:28.748Z,16302.08
2023-04-20T10:28:28.903Z,16424.96
2023-04-20T10:29:29.047Z,16363.52
2023-04-20T10:30:29.281Z,15697.92
2023-04-20T10:31:29.353Z,14786.56
2023-04-20T10:32:29.571Z,14981.12
2023-04-20T10:33:29.610Z,17244.16
2023-04-20T10:34:29.776Z,19240.96
2023-04-20T10:35:29.919Z,20377.6
2023-04-20T10:36:30.090Z,19978.24
2023-04-20T10:37:30.224Z,19302.4
2023-04-20T10:38:30.475Z,18391.04
2023-04-20T10:39:30.520Z,18298.88
2023-04-20T10:40:30.686Z,18677.76
2023-04-20T10:41:30.824Z,18278.4
2023-04-20T10:42:30.981Z,17776.64
2023-04-20T10:43:31.133Z,16261.12
2023-04-20T10:44:31.286Z,15421.439
2023-04-20T10:45:31.425Z,16005.12
2023-04-20T10:46:31.640Z,16558.08
2023-04-20T10:47:31.787Z,17213.44
2023-04-20T10:48:31.848Z,18083.84
2023-04-20T10:49:31.990Z,19701.76
2023-04-20T10:50:32.138Z,22261.76
2023-04-20T10:51:32.301Z,22261.76
2023-04-20T10:52:32.439Z,21237.76
2023-04-20T10:53:32.559Z,21135.36
2023-04-20T10:54:32.693Z,21606.4
2023-04-20T10:55:32.850Z,22220.8
2023-04-20T10:56:32.948Z,22753.28
2023-04-20T10:57:33.116Z,22732.8
2023-04-20T10:58:33.301Z,22917.12
2023-04-20T10:59:33.463Z,24903.68
2023-04-20T11:00:33.638Z,26726.4
2023-04-20T11:01:33.843Z,28672
2023-04-20T11:02:34.002Z,32010.24
2023-04-20T11:03:34.273Z,32952.32
2023-04-20T11:04:34.226Z,32337.92
2023-04-20T11:05:34.362Z,32890.88
2023-04-20T11:06:34.514Z,30863.36
2023-04-20T11:07:34.661Z,27279.36
2023-04-20T11:08:34.809Z,25600
2023-04-20T11:09:34.923Z,24268.8
2023-04-20T11:10:35.063Z,22917.12
2023-04-20T11:11:35.220Z,22200.32
2023-04-20T11:12:35.387Z,22097.92
2023-04-20T11:13:35.564Z,23797.76
2023-04-20T11:14:35.673Z,24780.8
2023-04-20T11:15:35.850Z,23367.68
2023-04-20T11:16:47.793Z,21258.24
2023-04-20T11:17:36.092Z,19722.24
2023-04-20T11:18:36.223Z,18821.12
2023-04-20T11:19:36.393Z,18319.36
2023-04-20T11:20:36.553Z,18073.6
2023-04-20T11:21:36.681Z,17295.36
2023-04-20T11:22:36.841Z,16158.72
2023-04-20T11:23:36.927Z,16588.8
2023-04-20T11:24:37.040Z,18237.44
2023-04-20T11:25:37.210Z,20224
2023-04-20T11:26:37.342Z,20643.84
2023-04-20T11:27:37.481Z,21811.2
2023-04-20T11:28:37.672Z,24842.24
2023-04-20T11:29:37.794Z,26030.08
2023-04-20T11:30:38.641Z,22630.4
2023-04-20T11:32:38.664Z,15595.52
2023-04-20T11:33:38.601Z,14059.52
2023-04-20T11:34:38.769Z,14008.319
2023-04-20T11:35:38.857Z,16066.56
2023-04-20T11:36:39.004Z,20664.32
2023-04-20T11:37:39.162Z,26050.56
2023-04-20T11:38:39.261Z,27811.84
2023-04-20T11:39:39.423Z,28549.12
2023-04-20T11:40:39.567Z,32419.84
2023-04-20T11:41:39.710Z,36720.64
2023-04-20T11:42:39.863Z,39772.16
2023-04-20T11:43:40.081Z,39157.76
2023-04-20T11:44:40.175Z,38912
2023-04-20T11:45:40.343Z,38748.16
2023-04-20T11:46:40.471Z,37253.12
2023-04-20T11:47:40.592Z,40878.08
2023-04-20T11:48:40.726Z,42270.72
2023-04-20T11:49:40.822Z,37171.2
2023-04-20T11:50:42.497Z,32849.92
2023-04-20T11:51:41.128Z,29614.08
2023-04-20T11:52:41.284Z,28487.68
2023-04-20T11:53:41.451Z,28282.88
2023-04-20T11:54:41.660Z,28405.76
2023-04-20T11:55:41.756Z,28979.2
2023-04-20T11:56:42.419Z,29900.8
2023-04-20T11:57:42.044Z,31047.68
2023-04-20T11:58:42.195Z,32931.84
2023-04-20T11:59:42.345Z,34324.48
2023-04-20T12:00:42.498Z,34508.8
2023-04-20T12:01:42.651Z,34160.64
2023-04-20T12:02:42.900Z,35266.56
2023-04-20T12:03:44.025Z,37109.76
2023-04-20T12:04:43.174Z,32849.92
2023-04-20T12:05:43.331Z,29122.56
2023-04-20T12:06:43.312Z,29368.32
2023-04-20T12:07:43.450Z,29941.76
2023-04-20T12:08:43.602Z,27381.76
2023-04-20T12:09:43.759Z,22650.88
2023-04-20T12:10:43.906Z,20121.6
2023-04-20T12:11:44.056Z,20080.64
2023-04-20T12:12:44.234Z,20285.44
2023-04-20T12:13:44.400Z,19742.72
2023-04-20T12:14:44.531Z,18718.72
2023-04-20T12:15:44.655Z,16885.76
2023-04-20T12:16:44.761Z,16517.12
2023-04-20T12:17:44.940Z,17489.92
2023-04-20T12:18:45.021Z,16424.96
2023-04-20T12:19:45.187Z,15994.88
2023-04-20T12:20:45.338Z,15831.04
2023-04-20T12:21:45.498Z,14970.88
2023-04-20T12:22:45.581Z,14991.359
2023-04-20T12:23:45.721Z,16353.279
2023-04-20T12:24:45.886Z,17080.32
2023-04-20T12:25:46.041Z,17807.36
2023-04-20T12:26:46.190Z,21155.84
2023-04-20T12:27:47.553Z,25190.4
2023-04-20T12:28:46.447Z,27873.28
2023-04-20T12:29:46.597Z,25948.16
2023-04-20T12:30:46.744Z,22282.24